createdAt,value
2023-03-25T00:01:50.956Z,100581.44
2023-03-25T00:04:19.959Z,100587.06
2023-03-25T00:06:48.192Z,100583.91
2023-03-25T00:09:15.921Z,100585.81
2023-03-25T00:11:43.653Z,100585.25
2023-03-25T00:14:12.299Z,100575.97
2023-03-25T00:16:41.434Z,100575.28
2023-03-25T00:19:09.883Z,100583.28
2023-03-25T00:21:39.828Z,100580.47
2023-03-25T00:24:08.113Z,100598.06
2023-03-25T00:26:35.854Z,100600.78
2023-03-25T00:29:03.669Z,100599.03
2023-03-25T00:31:31.379Z,100611.00
2023-03-25T00:34:00.462Z,100619.31
2023-03-25T00:36:28.345Z,100611.19
2023-03-25T00:38:56.090Z,100616.94
2023-03-25T00:41:26.017Z,100615.06
2023-03-25T00:43:55.421Z,100617.94
2023-03-25T00:46:23.960Z,100633.16
2023-03-25T00:48:52.593Z,100616.72
2023-03-25T00:51:22.485Z,100622.97
2023-03-25T00:53:53.233Z,100632.53
2023-03-25T00:56:21.009Z,100626.56
2023-03-25T00:58:48.875Z,100632.72
2023-03-25T01:01:23.291Z,100630.72
2023-03-25T01:03:57.729Z,100632.88
2023-03-25T01:06:29.825Z,100629.50
2023-03-25T01:08:58.628Z,100633.91
2023-03-25T01:11:28.272Z,100638.53
2023-03-25T01:13:59.706Z,100646.84
2023-03-25T01:16:28.284Z,100637.19
2023-03-25T01:18:57.004Z,100641.59
2023-03-25T01:21:24.779Z,100638.50
2023-03-25T01:23:53.868Z,100636.22
2023-03-25T01:26:21.596Z,100644.91
2023-03-25T01:28:49.349Z,100641.38
2023-03-25T01:31:17.417Z,100635.19
2023-03-25T01:33:45.181Z,100646.06
2023-03-25T01:36:13.906Z,100650.34
2023-03-25T01:38:43.468Z,100643.94
2023-03-25T01:41:12.595Z,100648.97
2023-03-25T01:43:40.359Z,100642.97
2023-03-25T01:46:14.244Z,100639.19
2023-03-25T01:48:45.307Z,100641.22
2023-03-25T01:51:18.504Z,100640.25
2023-03-25T01:53:46.725Z,100631.78
2023-03-25T01:56:19.537Z,100622.63
2023-03-25T01:58:48.209Z,100619.16
2023-03-25T02:01:18.304Z,100629.63
2023-03-25T02:03:50.906Z,100636.03
2023-03-25T02:06:25.144Z,100636.13
2023-03-25T02:08:55.895Z,100636.06
2023-03-25T02:11:29.081Z,100637.56
2023-03-25T02:13:58.885Z,100641.25
2023-03-25T02:16:34.003Z,100649.56
2023-03-25T02:19:33.357Z,100654.91
2023-03-25T02:22:38.055Z,100646.59
2023-03-25T02:25:35.381Z,100647.50
2023-03-25T02:28:12.260Z,100653.69
2023-03-25T02:30:57.598Z,100659.53
2023-03-25T02:33:39.265Z,100655.34
2023-03-25T02:36:48.836Z,100651.28
2023-03-25T02:39:25.547Z,100645.78
2023-03-25T02:42:00.576Z,100647.50
2023-03-25T02:44:36.236Z,100651.41
2023-03-25T02:47:08.514Z,100656.78
2023-03-25T02:49:39.420Z,100658.13
2023-03-25T02:52:12.516Z,100658.81
2023-03-25T02:54:45.131Z,100646.88
2023-03-25T02:57:18.870Z,100651.72
2023-03-25T02:59:48.883Z,100651.97
2023-03-25T03:02:19.366Z,100658.38
2023-03-25T03:04:49.217Z,100657.16
2023-03-25T03:07:25.183Z,100663.00
2023-03-25T03:10:01.495Z,100660.28
2023-03-25T03:12:49.843Z,100663.06
2023-03-25T03:15:31.976Z,100660.75
2023-03-25T03:18:14.412Z,100665.28
2023-03-25T03:20:50.090Z,100667.16
2023-03-25T03:23:25.714Z,100662.72
2023-03-25T03:26:04.549Z,100663.63
2023-03-25T03:28:37.986Z,100665.19
2023-03-25T03:31:08.629Z,100660.59
2023-03-25T03:33:41.964Z,100660.97
2023-03-25T03:36:13.625Z,100675.78
2023-03-25T03:38:46.993Z,100674.69
2023-03-25T03:41:21.428Z,100683.22
2023-03-25T03:43:51.848Z,100677.47
2023-03-25T03:46:23.698Z,100681.16
2023-03-25T03:48:56.076Z,100678.50
2023-03-25T03:51:29.159Z,100676.28
2023-03-25T03:54:00.713Z,100679.75
2023-03-25T03:56:37.090Z,100679.75
2023-03-25T03:59:11.734Z,100676.47
2023-03-25T04:01:46.115Z,100691.78
2023-03-25T04:04:20.205Z,100687.41
2023-03-25T04:06:56.882Z,100696.72
2023-03-25T04:09:28.730Z,100697.53
2023-03-25T04:12:02.840Z,100699.47
2023-03-25T04:14:31.273Z,100694.94
2023-03-25T04:16:59.592Z,100700.78
2023-03-25T04:19:27.425Z,100704.59
2023-03-25T04:21:55.367Z,100711.31
2023-03-25T04:24:25.141Z,100718.78
2023-03-25T04:26:53.039Z,100727.53
2023-03-25T04:29:22.239Z,100730.03
2023-03-25T04:31:50.577Z,100732.53
2023-03-25T04:34:20.541Z,100737.69
2023-03-25T04:36:50.029Z,100739.00
2023-03-25T04:39:22.377Z,100742.84
2023-03-25T04:41:50.865Z,100741.94
2023-03-25T04:44:18.642Z,100752.16
2023-03-25T04:46:48.663Z,100756.16
2023-03-25T04:49:21.384Z,100743.47
2023-03-25T04:51:51.536Z,100753.91
2023-03-25T04:54:19.735Z,100747.66
2023-03-25T04:56:49.834Z,100750.97
2023-03-25T04:59:18.183Z,100752.47
2023-03-25T05:01:47.630Z,100753.81
2023-03-25T05:04:17.640Z,100751.72
2023-03-25T05:06:47.467Z,100760.03
2023-03-25T05:09:17.119Z,100761.63
2023-03-25T05:11:44.929Z,100749.50
2023-03-25T05:14:14.043Z,100755.47
2023-03-25T05:16:41.961Z,100760.69
2023-03-25T05:19:11.145Z,100760.16
2023-03-25T05:21:41.000Z,100762.63
2023-03-25T05:24:10.283Z,100770.72
2023-03-25T05:26:39.756Z,100770.56
2023-03-25T05:29:09.384Z,100763.56
2023-03-25T05:31:37.654Z,100765.44
2023-03-25T05:34:06.746Z,100769.09
2023-03-25T05:36:36.474Z,100772.09
2023-03-25T05:39:05.547Z,100777.06
2023-03-25T05:41:33.660Z,100781.78
2023-03-25T05:44:01.955Z,100773.53
2023-03-25T05:46:30.656Z,100781.56
2023-03-25T05:49:00.895Z,100785.38
2023-03-25T05:51:33.775Z,100789.31
2023-03-25T05:54:03.309Z,100796.56
2023-03-25T05:56:31.313Z,100804.34
2023-03-25T05:58:59.255Z,100801.69
2023-03-25T06:01:33.457Z,100813.66
2023-03-25T06:04:03.159Z,100817.59
2023-03-25T06:06:32.358Z,100820.56
2023-03-25T06:09:00.332Z,100826.50
2023-03-25T06:11:29.592Z,100827.25
2023-03-25T06:13:57.559Z,100831.81
2023-03-25T06:16:27.962Z,100834.41
2023-03-25T06:18:59.485Z,100833.81
2023-03-25T06:21:28.688Z,100843.75
2023-03-25T06:23:58.342Z,100845.91
2023-03-25T06:26:26.534Z,100844.66
2023-03-25T06:28:55.878Z,100842.75
2023-03-25T06:31:26.870Z,100838.25
2023-03-25T06:33:56.403Z,100838.22
2023-03-25T06:36:25.683Z,100842.91
2023-03-25T06:38:54.166Z,100855.91
2023-03-25T06:41:25.613Z,100845.78
2023-03-25T06:43:54.790Z,100847.38
2023-03-25T06:46:22.612Z,100859.81
2023-03-25T06:48:50.447Z,100849.31
2023-03-25T06:51:18.159Z,100860.06
2023-03-25T06:53:45.885Z,100863.00
2023-03-25T06:56:13.622Z,100856.88
2023-03-25T06:58:41.925Z,100850.38
2023-03-25T07:01:11.204Z,100855.72
2023-03-25T07:03:39.488Z,100858.31
2023-03-25T07:06:08.158Z,100868.09
2023-03-25T07:08:35.989Z,100861.56
2023-03-25T07:11:04.356Z,100859.19
2023-03-25T07:13:32.276Z,100863.25
2023-03-25T07:16:00.715Z,100872.22
2023-03-25T07:18:30.034Z,100876.84
2023-03-25T07:20:57.819Z,100870.63
2023-03-25T07:23:26.021Z,100884.41
2023-03-25T07:25:54.208Z,100883.88
2023-03-25T07:28:21.965Z,100894.50
2023-03-25T07:30:49.720Z,100899.03
2023-03-25T07:33:17.427Z,100904.88
2023-03-25T07:35:46.560Z,100909.88
2023-03-25T07:38:14.297Z,100916.25
2023-03-25T07:40:42.156Z,100913.34
2023-03-25T07:43:09.867Z,100927.50
2023-03-25T07:45:43.511Z,100931.16
2023-03-25T07:48:14.683Z,100924.28
2023-03-25T07:50:43.543Z,100921.50
2023-03-25T07:53:12.628Z,100928.50
2023-03-25T07:55:40.358Z,100932.31
2023-03-25T07:58:08.095Z,100932.28
2023-03-25T08:00:35.970Z,100935.13
2023-03-25T08:03:03.961Z,100942.00
2023-03-25T08:05:32.076Z,100945.09
2023-03-25T08:08:00.931Z,100955.38
2023-03-25T08:10:30.006Z,100942.03
2023-03-25T08:12:57.759Z,100941.50
2023-03-25T08:15:25.770Z,100951.88
2023-03-25T08:17:54.870Z,100952.31
2023-03-25T08:20:22.855Z,100965.69
2023-03-25T08:22:51.299Z,100958.50
2023-03-25T08:25:19.031Z,100947.84
2023-03-25T08:27:48.145Z,100963.63
2023-03-25T08:30:17.542Z,100968.50
2023-03-25T08:32:46.317Z,100977.34
2023-03-25T08:35:14.706Z,100976.50
2023-03-25T08:37:42.462Z,100975.66
2023-03-25T08:40:10.532Z,100978.81
2023-03-25T08:42:38.827Z,100982.56
2023-03-25T08:45:09.503Z,100994.22
2023-03-25T08:47:37.349Z,100980.56
2023-03-25T08:50:05.740Z,100983.91
2023-03-25T08:52:33.437Z,100984.88
2023-03-25T08:55:01.246Z,100984.94
2023-03-25T08:57:28.959Z,100983.56
2023-03-25T08:59:56.696Z,100977.78
2023-03-25T09:02:26.403Z,100986.28
2023-03-25T09:04:54.446Z,100990.94
2023-03-25T09:07:23.276Z,101002.59
2023-03-25T09:09:51.042Z,100993.53
2023-03-25T09:12:18.832Z,100995.13
2023-03-25T09:14:46.644Z,100995.34
2023-03-25T09:17:14.393Z,101003.91
2023-03-25T09:19:43.761Z,100992.22
2023-03-25T09:22:11.487Z,100993.09
2023-03-25T09:24:39.160Z,100994.53
2023-03-25T09:27:07.024Z,100985.97
2023-03-25T09:29:35.301Z,100992.31
2023-03-25T09:32:03.712Z,101004.03
2023-03-25T09:34:32.264Z,100990.72
2023-03-25T09:37:03.137Z,100995.19
2023-03-25T09:39:31.361Z,101005.56
2023-03-25T09:42:20.540Z,101008.59
2023-03-25T09:44:56.618Z,101015.75
2023-03-25T09:47:26.056Z,101025.22
2023-03-25T09:49:58.284Z,101013.50
2023-03-25T09:52:35.775Z,101021.06
2023-03-25T09:55:07.522Z,101013.88
2023-03-25T09:57:43.720Z,101010.97
2023-03-25T10:00:21.216Z,101015.69
2023-03-25T10:02:58.036Z,101023.31
2023-03-25T10:05:41.150Z,101029.22
2023-03-25T10:08:20.372Z,101034.56
2023-03-25T10:10:52.408Z,101040.22
2023-03-25T10:13:26.744Z,101045.25
2023-03-25T10:16:00.818Z,101035.84
2023-03-25T10:18:54.119Z,101028.50
2023-03-25T10:21:29.891Z,101035.16
2023-03-25T10:24:07.868Z,101028.97
2023-03-25T10:26:41.372Z,101037.09
2023-03-25T10:29:14.498Z,101026.88
2023-03-25T10:31:52.295Z,101029.03
2023-03-25T10:34:21.553Z,101029.41
2023-03-25T10:36:55.004Z,101030.44
2023-03-25T10:39:33.878Z,101020.38
2023-03-25T10:42:10.696Z,101022.47
2023-03-25T10:44:38.555Z,101016.97
2023-03-25T10:47:12.067Z,101020.28
2023-03-25T10:49:42.689Z,101012.41
2023-03-25T10:52:10.570Z,101020.19
2023-03-25T10:54:45.142Z,101019.16
2023-03-25T10:57:19.857Z,101026.78
2023-03-25T10:59:58.104Z,101023.09
2023-03-25T11:02:28.781Z,101021.31
2023-03-25T11:04:59.960Z,101028.19
2023-03-25T11:07:31.912Z,101022.03
2023-03-25T11:10:17.415Z,101016.91
2023-03-25T11:12:48.157Z,101025.59
2023-03-25T11:15:19.591Z,101021.28
2023-03-25T11:17:49.502Z,101028.00
2023-03-25T11:20:23.121Z,101020.78
2023-03-25T11:22:54.341Z,101023.97
2023-03-25T11:25:27.875Z,101024.50
2023-03-25T11:27:59.193Z,101025.09
2023-03-25T11:30:27.519Z,101026.25
2023-03-25T11:33:01.041Z,101028.41
2023-03-25T11:35:32.126Z,101024.03
2023-03-25T11:38:02.744Z,101028.50
2023-03-25T11:40:32.946Z,101027.66
2023-03-25T11:43:02.260Z,101010.94
2023-03-25T11:45:35.788Z,101000.16
2023-03-25T11:48:11.633Z,101001.91
2023-03-25T11:50:39.683Z,101001.28
2023-03-25T11:53:07.563Z,101002.84
2023-03-25T11:55:47.742Z,100996.41
2023-03-25T11:58:18.408Z,100989.19
2023-03-25T12:00:48.975Z,100985.59
2023-03-25T12:03:21.705Z,100994.94
2023-03-25T12:06:01.318Z,100993.06
2023-03-25T12:08:31.384Z,100995.25
2023-03-25T12:11:06.916Z,100991.06
2023-03-25T12:13:46.259Z,101002.56
2023-03-25T12:16:26.084Z,100996.78
2023-03-25T12:19:11.888Z,100998.63
2023-03-25T12:21:51.161Z,100994.81
2023-03-25T12:24:29.599Z,100996.53
2023-03-25T12:27:11.028Z,100995.22
2023-03-25T12:29:47.014Z,100986.81
2023-03-25T12:32:27.876Z,100975.44
2023-03-25T12:35:06.794Z,100974.56
2023-03-25T12:37:41.994Z,100967.50
2023-03-25T12:40:33.561Z,100970.75
2023-03-25T12:43:06.411Z,100970.16
2023-03-25T12:45:59.524Z,100969.25
2023-03-25T12:48:43.353Z,100958.59
2023-03-25T12:51:21.941Z,100955.03
2023-03-25T12:54:04.048Z,100945.06
2023-03-25T12:56:49.223Z,100944.75
2023-03-25T12:59:49.701Z,100948.59
2023-03-25T13:02:36.295Z,100949.03
2023-03-25T13:05:18.921Z,100946.59
2023-03-25T13:07:50.917Z,100937.72
2023-03-25T13:10:19.996Z,100929.13
2023-03-25T13:12:51.899Z,100919.22
2023-03-25T13:15:27.239Z,100914.84
2023-03-25T13:18:01.360Z,100903.25
2023-03-25T13:20:32.991Z,100904.72
2023-03-25T13:23:04.689Z,100900.84
2023-03-25T13:25:42.863Z,100899.88
2023-03-25T13:28:14.752Z,100897.44
2023-03-25T13:30:46.539Z,100898.69
2023-03-25T13:33:18.035Z,100877.84
2023-03-25T13:35:48.946Z,100872.94
2023-03-25T13:38:22.900Z,100860.69
2023-03-25T13:40:59.317Z,100858.75
2023-03-25T13:43:33.224Z,100860.97
2023-03-25T13:46:06.166Z,100864.44
2023-03-25T13:48:41.841Z,100871.84
2023-03-25T13:51:10.595Z,100860.38
2023-03-25T13:53:44.158Z,100852.97
2023-03-25T13:56:57.299Z,100840.00
2023-03-25T13:59:48.726Z,100857.28
2023-03-25T14:02:39.595Z,100842.94
2023-03-25T14:05:28.608Z,100856.91
2023-03-25T14:08:38.114Z,100853.50
2023-03-25T14:11:21.600Z,100850.19
2023-03-25T14:13:52.394Z,100852.69
2023-03-25T14:16:24.382Z,100853.59
2023-03-25T14:18:56.067Z,100860.38
2023-03-25T14:21:35.564Z,100862.59
2023-03-25T14:24:06.905Z,100852.03
2023-03-25T14:26:37.684Z,100861.53
2023-03-25T14:29:17.456Z,100850.66
2023-03-25T14:32:02.071Z,100851.06
2023-03-25T14:34:30.037Z,100851.75
2023-03-25T14:37:27.451Z,100856.13
2023-03-25T14:39:59.332Z,100855.88
2023-03-25T14:42:41.860Z,100854.41
2023-03-25T14:45:38.381Z,100858.38
2023-03-25T14:48:22.889Z,100866.19
2023-03-25T14:51:10.810Z,100860.97
2023-03-25T14:53:41.234Z,100858.84
2023-03-25T14:56:19.047Z,100855.97
2023-03-25T14:58:51.996Z,100850.69
2023-03-25T15:01:21.895Z,100844.56
2023-03-25T15:03:50.775Z,100820.44
2023-03-25T15:06:29.850Z,100819.91
2023-03-25T15:09:00.923Z,100827.00
2023-03-25T15:11:34.512Z,100812.81
2023-03-25T15:14:06.947Z,100806.88
2023-03-25T15:16:37.381Z,100798.06
2023-03-25T15:19:11.768Z,100804.25
2023-03-25T15:22:11.243Z,100805.50
2023-03-25T15:24:41.800Z,100805.44
2023-03-25T15:27:21.311Z,100798.03
2023-03-25T15:30:01.406Z,100805.66
2023-03-25T15:32:44.785Z,100790.59
2023-03-25T15:35:43.276Z,100766.28
2023-03-25T15:38:29.075Z,100769.31
2023-03-25T15:41:19.572Z,100760.59
2023-03-25T15:44:18.299Z,100752.88
2023-03-25T15:47:07.378Z,100742.59
2023-03-25T15:49:52.420Z,100723.66
2023-03-25T15:52:42.209Z,100718.25
2023-03-25T15:55:14.788Z,100708.94
2023-03-25T15:57:48.556Z,100708.53
2023-03-25T16:00:23.496Z,100693.88
2023-03-25T16:02:56.342Z,100698.94
2023-03-25T16:05:24.487Z,100698.50
2023-03-25T16:07:52.838Z,100697.00
2023-03-25T16:10:28.049Z,100703.59
2023-03-25T16:12:57.191Z,100693.66
2023-03-25T16:15:28.046Z,100698.69
2023-03-25T16:17:56.438Z,100685.94
2023-03-25T16:20:26.841Z,100691.44
2023-03-25T16:22:56.361Z,100685.88
2023-03-25T16:25:28.935Z,100672.50
2023-03-25T16:27:58.855Z,100670.97
2023-03-25T16:30:30.538Z,100663.06
2023-03-25T16:33:12.738Z,100658.56
2023-03-25T16:35:42.975Z,100648.59
2023-03-25T16:38:17.336Z,100641.69
2023-03-25T16:40:46.962Z,100638.25
2023-03-25T16:43:20.549Z,100631.66
2023-03-25T16:45:50.481Z,100638.66
2023-03-25T16:48:20.507Z,100632.72
2023-03-25T16:50:48.342Z,100645.94
2023-03-25T16:53:18.826Z,100645.28
2023-03-25T16:55:48.889Z,100644.34
2023-03-25T16:58:21.067Z,100639.38
2023-03-25T17:00:51.708Z,100641.88
2023-03-25T17:03:38.753Z,100627.41
2023-03-25T17:06:19.462Z,100640.88
2023-03-25T17:08:50.706Z,100651.88
2023-03-25T17:11:18.595Z,100654.13
2023-03-25T17:13:51.880Z,100649.88
2023-03-25T17:16:20.219Z,100636.94
2023-03-25T17:18:49.203Z,100632.88
2023-03-25T17:21:26.676Z,100629.69
2023-03-25T17:23:55.980Z,100625.56
2023-03-25T17:26:26.152Z,100623.78
2023-03-25T17:29:06.212Z,100630.25
2023-03-25T17:31:36.458Z,100625.84
2023-03-25T17:34:07.348Z,100604.69
2023-03-25T17:36:37.828Z,100612.53
2023-03-25T17:39:12.292Z,100605.91
2023-03-25T17:41:41.407Z,100603.63
2023-03-25T17:44:15.993Z,100606.63
2023-03-25T17:46:44.190Z,100598.03
2023-03-25T17:49:16.680Z,100583.75
2023-03-25T17:51:45.149Z,100600.69
2023-03-25T17:54:12.972Z,100568.22
2023-03-25T17:56:41.040Z,100562.59
2023-03-25T17:59:16.830Z,100560.34
2023-03-25T18:01:45.225Z,100560.03
2023-03-25T18:04:15.104Z,100552.38
2023-03-25T18:06:43.877Z,100556.81
2023-03-25T18:09:16.840Z,100547.53
2023-03-25T18:11:45.062Z,100554.38
2023-03-25T18:14:14.271Z,100552.56
2023-03-25T18:16:42.379Z,100548.09
2023-03-25T18:19:12.403Z,100544.91
2023-03-25T18:21:40.162Z,100529.75
2023-03-25T18:24:08.024Z,100520.84
2023-03-25T18:26:36.136Z,100521.25
2023-03-25T18:29:05.248Z,100505.44
2023-03-25T18:31:34.337Z,100508.66
2023-03-25T18:34:02.093Z,100508.44
2023-03-25T18:36:29.893Z,100505.13
2023-03-25T18:38:57.802Z,100503.91
2023-03-25T18:41:25.575Z,100505.31
2023-03-25T18:43:53.280Z,100508.47
2023-03-25T18:46:21.498Z,100487.63
2023-03-25T18:48:50.672Z,100485.06
2023-03-25T18:51:18.425Z,100493.78
2023-03-25T18:53:47.288Z,100491.09
2023-03-25T18:56:15.059Z,100495.53
2023-03-25T18:58:42.764Z,100487.78
2023-03-25T19:01:15.548Z,100486.25
2023-03-25T19:03:43.490Z,100483.81
2023-03-25T19:06:14.674Z,100482.63
2023-03-25T19:08:43.390Z,100476.25
2023-03-25T19:11:20.754Z,100468.44
2023-03-25T19:13:49.168Z,100462.22
2023-03-25T19:16:17.065Z,100467.25
2023-03-25T19:18:44.856Z,100467.03
2023-03-25T19:21:18.274Z,100464.34
2023-03-25T19:23:46.000Z,100465.34
2023-03-25T19:26:14.176Z,100463.44
2023-03-25T19:28:42.222Z,100453.09
2023-03-25T19:31:13.263Z,100456.25
2023-03-25T19:33:41.224Z,100460.97
2023-03-25T19:36:14.763Z,100463.81
2023-03-25T19:38:44.015Z,100470.44
2023-03-25T19:41:15.438Z,100467.13
2023-03-25T19:43:43.378Z,100450.78
2023-03-25T19:46:11.437Z,100444.75
2023-03-25T19:48:39.259Z,100439.25
2023-03-25T19:51:07.314Z,100441.41
2023-03-25T19:53:35.366Z,100411.09
2023-03-25T19:56:06.236Z,100421.47
2023-03-25T19:58:35.028Z,100413.31
2023-03-25T20:01:02.873Z,100408.50
2023-03-25T20:03:32.773Z,100408.88
2023-03-25T20:06:02.455Z,100403.47
2023-03-25T20:08:31.984Z,100386.84
2023-03-25T20:11:01.175Z,100380.34
2023-03-25T20:13:30.520Z,100377.59
2023-03-25T20:15:58.284Z,100376.75
2023-03-25T20:18:26.050Z,100382.00
2023-03-25T20:20:53.789Z,100364.19
2023-03-25T20:23:21.631Z,100371.94
2023-03-25T20:25:52.655Z,100360.66
2023-03-25T20:28:20.607Z,100352.56
2023-03-25T20:30:49.699Z,100328.53
2023-03-25T20:33:17.721Z,100331.19
2023-03-25T20:35:46.039Z,100329.88
2023-03-25T20:38:14.258Z,100324.19
2023-03-25T20:40:45.024Z,100315.75
2023-03-25T20:43:14.547Z,100297.53
2023-03-25T20:45:43.132Z,100284.06
2023-03-25T20:48:12.705Z,100273.22
2023-03-25T20:50:40.640Z,100269.28
2023-03-25T20:53:08.955Z,100260.06
2023-03-25T20:55:37.326Z,100247.28
2023-03-25T20:58:05.752Z,100234.53
2023-03-25T21:00:34.108Z,100230.06
2023-03-25T21:03:03.326Z,100226.16
2023-03-25T21:05:33.001Z,100214.34
2023-03-25T21:08:00.700Z,100216.31
2023-03-25T21:10:28.526Z,100197.09
2023-03-25T21:12:56.232Z,100184.84
2023-03-25T21:15:23.947Z,100176.84
2023-03-25T21:17:51.773Z,100169.56
2023-03-25T21:20:21.849Z,100166.97
2023-03-25T21:22:51.165Z,100168.69
2023-03-25T21:25:19.079Z,100152.47
2023-03-25T21:27:46.939Z,100148.31
2023-03-25T21:30:15.400Z,100148.06
2023-03-25T21:32:43.433Z,100142.72
2023-03-25T21:35:11.435Z,100134.81
2023-03-25T21:37:40.096Z,100117.16
2023-03-25T21:40:14.565Z,100114.94
2023-03-25T21:42:43.289Z,100088.78
2023-03-25T21:45:13.488Z,100072.16
2023-03-25T21:47:41.697Z,100068.88
2023-03-25T21:50:11.609Z,100066.00
2023-03-25T21:52:43.033Z,100051.81
2023-03-25T21:55:12.578Z,100052.66
2023-03-25T21:57:44.313Z,100042.28
2023-03-25T22:00:16.254Z,100033.69
2023-03-25T22:02:44.734Z,100030.41
2023-03-25T22:05:13.434Z,100019.69
2023-03-25T22:07:41.485Z,100009.50
2023-03-25T22:10:11.257Z,100010.78
2023-03-25T22:12:40.719Z,100012.38
2023-03-25T22:15:10.702Z,99994.78
2023-03-25T22:17:38.533Z,99986.19
2023-03-25T22:20:07.644Z,99967.75
2023-03-25T22:22:35.359Z,99954.34
2023-03-25T22:25:03.997Z,99975.84
2023-03-25T22:27:31.683Z,99958.50
2023-03-25T22:30:01.383Z,99960.28
2023-03-25T22:32:29.396Z,99944.63
2023-03-25T22:34:57.267Z,99927.47
2023-03-25T22:37:25.105Z,99911.13
2023-03-25T22:39:52.812Z,99896.34
2023-03-25T22:42:20.645Z,99890.63
2023-03-25T22:44:48.422Z,99879.41
2023-03-25T22:47:17.541Z,99861.41
2023-03-25T22:49:45.779Z,99861.88
2023-03-25T22:52:13.552Z,99873.34
2023-03-25T22:54:41.293Z,99859.13
2023-03-25T22:57:09.080Z,99846.94
2023-03-25T22:59:38.969Z,99844.53
2023-03-25T23:02:07.686Z,99826.81
2023-03-25T23:04:37.948Z,99822.75
2023-03-25T23:07:08.468Z,99819.69
2023-03-25T23:09:43.950Z,99800.44
2023-03-25T23:12:13.817Z,99784.41
2023-03-25T23:14:43.300Z,99773.69
2023-03-25T23:17:11.942Z,99767.22
2023-03-25T23:19:41.494Z,99753.84
2023-03-25T23:22:09.487Z,99743.38
2023-03-25T23:24:38.044Z,99752.41
2023-03-25T23:27:06.024Z,99734.25
2023-03-25T23:29:35.862Z,99717.50
2023-03-25T23:32:04.928Z,99722.69
2023-03-25T23:34:33.826Z,99713.16
2023-03-25T23:37:03.309Z,99718.91
2023-03-25T23:39:31.631Z,99717.06
2023-03-25T23:41:59.469Z,99722.28
2023-03-25T23:44:27.427Z,99707.88
2023-03-25T23:46:55.749Z,99716.31
2023-03-25T23:49:24.121Z,99682.72
2023-03-25T23:51:52.030Z,99683.03
2023-03-25T23:54:21.174Z,99706.72
2023-03-25T23:56:49.040Z,99759.41
2023-03-25T23:59:16.892Z,99799.03
